Terminal Aerodrome Forecast
Issued by NWS Mt. Holly, NJ

Home | Current Version | Previous Version | Text Only | Print | Product List | Glossary On
Versions: 1 2 3 4 5 6 7 8 9 10 11 12 13 14 15 16 17 18 19 20
000
FTUS41 KPHI 291740
TAFABE
TAF
KABE 291740Z 2918/3018 28008KT P6SM SKC
     FM300000 22005KT P6SM SCT250
     FM300300 20005KT P6SM BKN150
     FM300800 21008KT P6SM FEW025 BKN040
     FM301500 27012G20KT P6SM BKN040=

USA.gov is the U.S. government's official web portal to all federal, state and local government web resources and services.